createdAt,value
2023-02-14T00:02:27.041Z,80.41
2023-02-14T00:06:38.876Z,80.36
2023-02-14T00:10:46.830Z,80.42
2023-02-14T00:15:12.125Z,80.19
2023-02-14T00:19:21.374Z,80.09
2023-02-14T00:23:29.085Z,80.00
2023-02-14T00:27:36.806Z,80.12
2023-02-14T00:31:45.559Z,79.89
2023-02-14T00:35:53.239Z,80.05
2023-02-14T00:40:00.442Z,79.80
2023-02-14T00:44:09.652Z,79.85
2023-02-14T00:48:17.692Z,79.83
2023-02-14T00:52:25.435Z,79.80
2023-02-14T00:56:35.058Z,80.36
2023-02-14T01:00:43.130Z,79.86
2023-02-14T01:04:50.715Z,79.63
2023-02-14T01:08:58.582Z,80.06
2023-02-14T01:13:07.323Z,79.91
2023-02-14T01:17:15.083Z,79.94
2023-02-14T01:21:24.869Z,79.43
2023-02-14T01:25:33.259Z,79.74
2023-02-14T01:29:41.482Z,79.94
2023-02-14T01:33:50.607Z,80.25
2023-02-14T01:37:57.989Z,80.24
2023-02-14T01:42:06.259Z,80.30
2023-02-14T01:46:14.355Z,80.38
2023-02-14T01:50:25.041Z,80.28
2023-02-14T01:54:34.896Z,80.07
2023-02-14T01:58:45.565Z,80.12
2023-02-14T02:02:54.211Z,79.90
2023-02-14T02:07:07.490Z,80.03
2023-02-14T02:11:17.876Z,79.94
2023-02-14T02:15:27.499Z,80.01
2023-02-14T02:20:05.496Z,79.98
2023-02-14T02:24:24.836Z,79.72
2023-02-14T02:29:00.236Z,79.95
2023-02-14T02:33:32.696Z,80.07
2023-02-14T02:37:48.444Z,79.55
2023-02-14T02:42:07.681Z,79.82
2023-02-14T02:46:37.390Z,79.60
2023-02-14T02:51:10.139Z,79.85
2023-02-14T02:55:22.558Z,79.62
2023-02-14T02:59:33.708Z,79.30
2023-02-14T03:04:00.495Z,79.03
2023-02-14T03:08:09.661Z,78.29
2023-02-14T03:12:24.959Z,78.22
2023-02-14T03:16:38.599Z,77.92
2023-02-14T03:20:51.218Z,77.29
2023-02-14T03:25:02.401Z,77.71
2023-02-14T03:29:17.726Z,77.75
2023-02-14T03:33:29.575Z,77.83
2023-02-14T03:37:40.652Z,77.98
2023-02-14T03:41:53.534Z,77.09
2023-02-14T03:46:04.750Z,77.85
2023-02-14T03:50:14.625Z,77.40
2023-02-14T03:54:23.660Z,76.48
2023-02-14T03:58:34.830Z,76.59
2023-02-14T04:02:44.647Z,75.39
2023-02-14T04:06:52.251Z,75.44
2023-02-14T04:11:02.645Z,74.58
2023-02-14T04:15:14.912Z,74.83
2023-02-14T04:19:25.507Z,74.77
2023-02-14T04:23:33.837Z,74.86
2023-02-14T04:27:41.437Z,74.61
2023-02-14T04:31:50.358Z,75.17
2023-02-14T04:36:01.289Z,75.13
2023-02-14T04:40:11.039Z,75.19
2023-02-14T04:44:18.605Z,75.36
2023-02-14T04:48:27.588Z,75.40
2023-02-14T04:52:35.475Z,74.90
2023-02-14T04:56:46.070Z,75.12
2023-02-14T05:00:55.160Z,75.30
2023-02-14T05:05:03.017Z,75.21
2023-02-14T05:09:10.631Z,75.27
2023-02-14T05:13:18.908Z,75.48
2023-02-14T05:17:27.202Z,75.62
2023-02-14T05:21:35.759Z,75.36
2023-02-14T05:25:44.444Z,75.26
2023-02-14T05:29:52.427Z,75.38
2023-02-14T05:34:00.468Z,75.04
2023-02-14T05:38:08.528Z,75.17
2023-02-14T05:42:16.334Z,75.18
2023-02-14T05:46:23.855Z,75.17
2023-02-14T05:50:31.728Z,75.13
2023-02-14T05:54:41.719Z,74.94
2023-02-14T05:58:49.507Z,75.00
2023-02-14T06:02:57.516Z,75.13
2023-02-14T06:07:06.218Z,75.56
2023-02-14T06:11:13.668Z,75.96
2023-02-14T06:15:23.273Z,75.46
2023-02-14T06:19:31.122Z,75.97
2023-02-14T06:23:39.710Z,75.67
2023-02-14T06:27:49.365Z,75.86
2023-02-14T06:31:57.849Z,75.92
2023-02-14T06:36:05.978Z,76.10
2023-02-14T06:40:15.940Z,75.65
2023-02-14T06:44:24.401Z,75.78
2023-02-14T06:48:32.667Z,75.84
2023-02-14T06:52:42.462Z,75.76
2023-02-14T06:56:50.429Z,75.44
2023-02-14T07:01:00.487Z,75.62
2023-02-14T07:05:09.083Z,75.35
2023-02-14T07:09:18.613Z,75.62
2023-02-14T07:13:26.906Z,75.28
2023-02-14T07:17:35.348Z,75.63
2023-02-14T07:21:43.136Z,75.72
2023-02-14T07:25:52.422Z,75.58
2023-02-14T07:30:00.092Z,75.55
2023-02-14T07:34:07.810Z,75.38
2023-02-14T07:38:16.338Z,75.49
2023-02-14T07:42:23.880Z,75.37
2023-02-14T07:46:31.695Z,75.01
2023-02-14T07:50:39.867Z,75.26
2023-02-14T07:54:47.417Z,74.99
2023-02-14T07:58:55.023Z,75.05
2023-02-14T08:03:02.525Z,74.91
2023-02-14T08:07:10.562Z,74.82
2023-02-14T08:11:39.025Z,75.20
2023-02-14T08:16:04.090Z,74.96
2023-02-14T08:20:13.881Z,74.95
2023-02-14T08:24:22.171Z,75.18
2023-02-14T08:28:33.519Z,75.09
2023-02-14T08:32:41.937Z,74.98
2023-02-14T08:36:49.746Z,75.05
2023-02-14T08:40:58.031Z,75.00
2023-02-14T08:45:07.180Z,75.11
2023-02-14T08:49:15.242Z,75.32
2023-02-14T08:53:23.422Z,74.70
2023-02-14T08:57:31.010Z,74.82
2023-02-14T09:01:39.212Z,74.84
2023-02-14T09:05:46.765Z,74.75
2023-02-14T09:09:55.101Z,75.02
2023-02-14T09:14:05.235Z,74.76
2023-02-14T09:18:14.201Z,74.66
2023-02-14T09:22:22.402Z,74.59
2023-02-14T09:26:30.264Z,74.39
2023-02-14T09:30:38.469Z,74.31
2023-02-14T09:34:45.818Z,74.47
2023-02-14T09:38:53.929Z,73.99
2023-02-14T09:43:13.155Z,74.07
2023-02-14T09:47:27.164Z,74.16
2023-02-14T09:51:35.240Z,73.90
2023-02-14T09:55:48.210Z,74.04
2023-02-14T10:00:01.811Z,74.22
2023-02-14T10:04:25.908Z,73.99
2023-02-14T10:08:46.861Z,73.53
2023-02-14T10:12:57.408Z,73.74
2023-02-14T10:17:09.468Z,73.34
2023-02-14T10:21:23.319Z,73.28
2023-02-14T10:25:32.433Z,72.76
2023-02-14T10:29:39.737Z,72.45
2023-02-14T10:33:57.091Z,72.88
2023-02-14T10:38:11.960Z,72.51
2023-02-14T10:42:27.790Z,72.86
2023-02-14T10:46:44.612Z,72.62
2023-02-14T10:50:57.905Z,72.41
2023-02-14T10:55:30.100Z,72.23
2023-02-14T10:59:48.776Z,71.94
2023-02-14T11:04:04.526Z,72.19
2023-02-14T11:08:29.433Z,71.64
2023-02-14T11:12:39.508Z,71.97
2023-02-14T11:16:52.037Z,71.89
2023-02-14T11:21:12.563Z,71.27
2023-02-14T11:25:24.734Z,70.93
2023-02-14T11:29:35.657Z,71.10
2023-02-14T11:33:46.335Z,71.32
2023-02-14T11:37:55.984Z,70.91
2023-02-14T11:42:06.525Z,70.63
2023-02-14T11:46:36.119Z,69.88
2023-02-14T11:50:54.562Z,69.81
2023-02-14T11:55:02.615Z,70.26
2023-02-14T11:59:12.386Z,70.03
2023-02-14T12:03:22.276Z,69.52
2023-02-14T12:07:33.439Z,69.61
2023-02-14T12:11:42.220Z,69.46
2023-02-14T12:15:56.672Z,69.38
2023-02-14T12:20:09.994Z,68.84
2023-02-14T12:24:24.508Z,68.81
2023-02-14T12:28:38.748Z,69.26
2023-02-14T12:32:50.694Z,69.36
2023-02-14T12:37:20.998Z,69.21
2023-02-14T12:41:36.874Z,68.88
2023-02-14T12:46:01.106Z,68.79
2023-02-14T12:50:25.317Z,68.13
2023-02-14T12:54:46.489Z,68.31
2023-02-14T12:59:05.513Z,67.89
2023-02-14T13:03:39.980Z,67.98
2023-02-14T13:08:07.586Z,68.12
2023-02-14T13:12:26.836Z,67.60
2023-02-14T13:16:39.485Z,68.22
2023-02-14T13:20:54.233Z,67.77
2023-02-14T13:25:05.090Z,67.72
2023-02-14T13:29:15.295Z,68.00
2023-02-14T13:33:34.767Z,68.09
2023-02-14T13:37:42.884Z,67.70
2023-02-14T13:41:51.600Z,67.58
2023-02-14T13:46:01.013Z,67.53
2023-02-14T13:50:23.391Z,67.23
2023-02-14T13:54:36.261Z,67.20
2023-02-14T13:58:52.473Z,67.77
2023-02-14T14:03:00.133Z,67.47
2023-02-14T14:07:27.268Z,67.69
2023-02-14T14:12:01.372Z,67.55
2023-02-14T14:16:30.792Z,67.03
2023-02-14T14:20:49.368Z,67.32
2023-02-14T14:25:00.374Z,66.99
2023-02-14T14:29:13.127Z,67.22
2023-02-14T14:33:29.221Z,67.34
2023-02-14T14:37:38.333Z,67.25
2023-02-14T14:41:46.741Z,67.21
2023-02-14T14:45:56.578Z,67.51
2023-02-14T14:50:16.484Z,67.47
2023-02-14T14:54:27.781Z,67.60
2023-02-14T14:58:41.135Z,67.50
2023-02-14T15:02:59.490Z,67.64
2023-02-14T15:07:21.217Z,68.19
2023-02-14T15:11:49.170Z,67.65
2023-02-14T15:15:58.354Z,68.32
2023-02-14T15:20:08.755Z,67.93
2023-02-14T15:24:19.442Z,68.62
2023-02-14T15:28:35.726Z,68.88
2023-02-14T15:32:44.321Z,68.30
2023-02-14T15:36:56.557Z,69.05
2023-02-14T15:41:04.638Z,68.65
2023-02-14T15:45:21.397Z,68.77
2023-02-14T15:49:37.471Z,68.69
2023-02-14T15:53:47.112Z,68.44
2023-02-14T15:57:58.283Z,68.55
2023-02-14T16:02:16.039Z,68.57
2023-02-14T16:06:36.564Z,68.24
2023-02-14T16:10:44.165Z,68.23
2023-02-14T16:15:03.668Z,68.39
2023-02-14T16:19:41.427Z,68.40
2023-02-14T16:23:49.760Z,68.31
2023-02-14T16:27:57.418Z,68.20
2023-02-14T16:32:16.514Z,67.39
2023-02-14T16:36:28.920Z,68.31
2023-02-14T16:40:37.631Z,68.32
2023-02-14T16:44:45.604Z,68.71
2023-02-14T16:48:54.104Z,68.88
2023-02-14T16:53:02.035Z,68.97
2023-02-14T16:57:11.182Z,68.92
2023-02-14T17:01:19.792Z,68.89
2023-02-14T17:05:29.885Z,68.90
2023-02-14T17:09:40.452Z,68.85
2023-02-14T17:13:49.023Z,68.71
2023-02-14T17:18:00.955Z,68.97
2023-02-14T17:22:09.619Z,68.78
2023-02-14T17:26:18.566Z,69.08
2023-02-14T17:30:26.795Z,68.69
2023-02-14T17:34:35.981Z,68.82
2023-02-14T17:38:45.216Z,68.26
2023-02-14T17:42:52.761Z,68.71
2023-02-14T17:47:00.769Z,68.73
2023-02-14T17:51:10.763Z,68.90
2023-02-14T17:55:19.301Z,69.13
2023-02-14T17:59:27.026Z,69.52
2023-02-14T18:03:37.178Z,69.58
2023-02-14T18:07:45.532Z,69.24
2023-02-14T18:11:53.793Z,69.65
2023-02-14T18:16:04.913Z,69.44
2023-02-14T18:20:14.736Z,69.53
2023-02-14T18:24:22.740Z,69.43
2023-02-14T18:28:35.149Z,69.70
2023-02-14T18:32:43.437Z,69.34
2023-02-14T18:36:51.268Z,69.43
2023-02-14T18:40:58.990Z,70.23
2023-02-14T18:45:08.058Z,70.52
2023-02-14T18:49:16.199Z,70.38
2023-02-14T18:53:24.020Z,70.47
2023-02-14T18:57:32.192Z,70.33
2023-02-14T19:01:43.430Z,70.35
2023-02-14T19:05:53.543Z,70.40
2023-02-14T19:10:00.882Z,70.87
2023-02-14T19:14:10.948Z,70.52
2023-02-14T19:18:19.036Z,70.51
2023-02-14T19:22:27.920Z,70.44
2023-02-14T19:26:40.487Z,70.40
2023-02-14T19:30:49.211Z,70.67
2023-02-14T19:34:57.154Z,70.66
2023-02-14T19:39:05.380Z,70.77
2023-02-14T19:43:13.628Z,70.68
2023-02-14T19:47:31.313Z,70.78
2023-02-14T19:51:49.484Z,71.26
2023-02-14T19:55:57.741Z,71.21
2023-02-14T20:00:08.969Z,71.54
2023-02-14T20:04:20.953Z,71.53
2023-02-14T20:08:28.726Z,71.79
2023-02-14T20:12:37.092Z,72.16
2023-02-14T20:16:45.108Z,72.29
2023-02-14T20:21:05.687Z,72.25
2023-02-14T20:25:14.039Z,72.28
2023-02-14T20:29:23.584Z,72.78
2023-02-14T20:33:31.603Z,72.94
2023-02-14T20:37:39.384Z,73.43
2023-02-14T20:41:50.298Z,73.74
2023-02-14T20:46:01.539Z,73.92
2023-02-14T20:50:12.243Z,74.09
2023-02-14T20:54:20.469Z,74.18
2023-02-14T20:58:28.321Z,74.34
2023-02-14T21:02:36.200Z,74.40
2023-02-14T21:06:45.067Z,74.76
2023-02-14T21:10:53.080Z,75.01
2023-02-14T21:15:00.599Z,74.98
2023-02-14T21:19:08.568Z,75.27
2023-02-14T21:23:19.536Z,75.30
2023-02-14T21:27:27.393Z,75.66
2023-02-14T21:31:36.262Z,75.59
2023-02-14T21:35:44.680Z,75.75
2023-02-14T21:39:52.780Z,76.09
2023-02-14T21:44:01.786Z,76.01
2023-02-14T21:48:26.980Z,76.07
2023-02-14T21:52:35.559Z,76.49
2023-02-14T21:56:45.651Z,76.59
2023-02-14T22:00:52.923Z,76.83
2023-02-14T22:05:01.390Z,77.06
2023-02-14T22:09:12.314Z,77.24
2023-02-14T22:13:19.973Z,77.40
2023-02-14T22:17:28.238Z,77.62
2023-02-14T22:21:37.297Z,77.68
2023-02-14T22:25:45.699Z,77.76
2023-02-14T22:29:54.021Z,77.79
2023-02-14T22:34:01.506Z,77.71
2023-02-14T22:38:10.561Z,77.63
2023-02-14T22:42:19.587Z,77.95
2023-02-14T22:46:29.246Z,78.08
2023-02-14T22:50:37.627Z,78.12
2023-02-14T22:54:45.522Z,78.37
2023-02-14T22:58:56.885Z,78.56
2023-02-14T23:03:05.386Z,78.65
2023-02-14T23:07:15.163Z,78.54
2023-02-14T23:11:25.689Z,78.58
2023-02-14T23:15:50.694Z,78.54
2023-02-14T23:20:16.511Z,78.60
2023-02-14T23:24:25.957Z,78.65
2023-02-14T23:28:34.220Z,78.96
2023-02-14T23:32:42.345Z,78.84
2023-02-14T23:36:49.931Z,78.85
2023-02-14T23:41:15.541Z,78.86
2023-02-14T23:45:37.655Z,79.13
2023-02-14T23:49:46.293Z,79.27
2023-02-14T23:53:56.520Z,79.27
2023-02-14T23:58:05.911Z,79.46
